sensor_id;sensor_type;location;lat;lon;timestamp;pressure;altitude;pressure_sealevel;temperature;humidity
38812;BME280;24553;51.640;-0.752;2023-05-12T00:01:36;101189.13;;;10.20;100.00
38812;BME280;24553;51.640;-0.752;2023-05-12T00:04:01;101187.25;;;10.68;100.00
38812;BME280;24553;51.640;-0.752;2023-05-12T00:06:26;101185.50;;;10.83;100.00
38812;BME280;24553;51.640;-0.752;2023-05-12T00:08:52;101191.47;;;10.85;100.00
38812;BME280;24553;51.640;-0.752;2023-05-12T00:11:17;101196.28;;;10.59;100.00
38812;BME280;24553;51.640;-0.752;2023-05-12T00:13:42;101197.75;;;10.61;100.00
38812;BME280;24553;51.640;-0.752;2023-05-12T00:16:08;101195.72;;;10.63;100.00
38812;BME280;24553;51.640;-0.752;2023-05-12T00:18:34;101195.63;;;10.57;100.00
38812;BME280;24553;51.640;-0.752;2023-05-12T00:20:59;101202.47;;;10.43;100.00
38812;BME280;24553;51.640;-0.752;2023-05-12T00:23:24;101207.44;;;10.46;100.00
38812;BME280;24553;51.640;-0.752;2023-05-12T00:25:49;101208.56;;;10.52;100.00
38812;BME280;24553;51.640;-0.752;2023-05-12T00:28:16;101208.41;;;10.45;100.00
38812;BME280;24553;51.640;-0.752;2023-05-12T00:30:41;101204.94;;;10.44;100.00
38812;BME280;24553;51.640;-0.752;2023-05-12T00:33:06;101202.50;;;10.35;100.00
38812;BME280;24553;51.640;-0.752;2023-05-12T00:35:32;101202.31;;;10.36;100.00
38812;BME280;24553;51.640;-0.752;2023-05-12T00:37:57;101201.84;;;10.33;100.00
38812;BME280;24553;51.640;-0.752;2023-05-12T00:40:22;101209.63;;;10.26;100.00
38812;BME280;24553;51.640;-0.752;2023-05-12T00:42:48;101208.31;;;10.30;100.00
38812;BME280;24553;51.640;-0.752;2023-05-12T00:45:13;101214.91;;;10.26;100.00
38812;BME280;24553;51.640;-0.752;2023-05-12T00:47:39;101211.81;;;10.22;100.00
38812;BME280;24553;51.640;-0.752;2023-05-12T00:50:05;101217.28;;;10.13;100.00
38812;BME280;24553;51.640;-0.752;2023-05-12T00:52:30;101216.16;;;10.07;100.00
38812;BME280;24553;51.640;-0.752;2023-05-12T00:54:57;101219.13;;;10.04;100.00
38812;BME280;24553;51.640;-0.752;2023-05-12T00:57:24;101220.47;;;9.02;100.00
38812;BME280;24553;51.640;-0.752;2023-05-12T00:59:50;101245.31;;;8.58;100.00
38812;BME280;24553;51.640;-0.752;2023-05-12T01:02:15;101224.44;;;9.96;100.00
38812;BME280;24553;51.640;-0.752;2023-05-12T01:04:40;101223.06;;;10.16;100.00
38812;BME280;24553;51.640;-0.752;2023-05-12T01:07:31;101224.84;;;10.40;100.00
38812;BME280;24553;51.640;-0.752;2023-05-12T01:09:56;101224.50;;;10.43;100.00
38812;BME280;24553;51.640;-0.752;2023-05-12T01:12:23;101222.81;;;10.51;100.00
38812;BME280;24553;51.640;-0.752;2023-05-12T01:14:49;101226.50;;;10.41;100.00
38812;BME280;24553;51.640;-0.752;2023-05-12T01:17:19;101232.97;;;10.39;100.00
38812;BME280;24553;51.640;-0.752;2023-05-12T01:19:48;101239.28;;;10.38;100.00
38812;BME280;24553;51.640;-0.752;2023-05-12T01:22:19;101239.13;;;10.31;100.00
38812;BME280;24553;51.640;-0.752;2023-05-12T01:24:47;101232.47;;;10.43;100.00
38812;BME280;24553;51.640;-0.752;2023-05-12T01:27:21;101236.75;;;10.44;100.00
38812;BME280;24553;51.640;-0.752;2023-05-12T01:29:48;101236.56;;;10.54;100.00
38812;BME280;24553;51.640;-0.752;2023-05-12T01:32:17;101243.34;;;10.57;100.00
38812;BME280;24553;51.640;-0.752;2023-05-12T01:34:43;101247.28;;;10.61;100.00
38812;BME280;24553;51.640;-0.752;2023-05-12T01:37:10;101249.06;;;10.68;100.00
38812;BME280;24553;51.640;-0.752;2023-05-12T01:39:36;101250.53;;;10.79;100.00
38812;BME280;24553;51.640;-0.752;2023-05-12T01:42:02;101246.66;;;10.90;100.00
38812;BME280;24553;51.640;-0.752;2023-05-12T01:44:28;101252.00;;;11.13;100.00
38812;BME280;24553;51.640;-0.752;2023-05-12T01:46:53;101241.69;;;11.41;100.00
38812;BME280;24553;51.640;-0.752;2023-05-12T01:49:18;101249.56;;;11.72;100.00
38812;BME280;24553;51.640;-0.752;2023-05-12T01:51:44;101249.88;;;11.92;100.00
38812;BME280;24553;51.640;-0.752;2023-05-12T01:54:09;101259.00;;;12.13;100.00
38812;BME280;24553;51.640;-0.752;2023-05-12T01:56:35;101263.13;;;12.30;100.00
38812;BME280;24553;51.640;-0.752;2023-05-12T01:59:00;101250.09;;;12.35;100.00
38812;BME280;24553;51.640;-0.752;2023-05-12T02:01:26;101257.63;;;12.47;100.00
38812;BME280;24553;51.640;-0.752;2023-05-12T02:03:53;101264.31;;;12.57;100.00
38812;BME280;24553;51.640;-0.752;2023-05-12T02:06:19;101255.03;;;12.68;100.00
38812;BME280;24553;51.640;-0.752;2023-05-12T02:08:45;101256.47;;;12.85;100.00
38812;BME280;24553;51.640;-0.752;2023-05-12T02:11:10;101258.38;;;12.92;100.00
38812;BME280;24553;51.640;-0.752;2023-05-12T02:13:36;101253.38;;;13.03;100.00
38812;BME280;24553;51.640;-0.752;2023-05-12T02:16:01;101255.84;;;13.20;100.00
38812;BME280;24553;51.640;-0.752;2023-05-12T02:18:27;101255.56;;;13.29;100.00
38812;BME280;24553;51.640;-0.752;2023-05-12T02:20:52;101261.88;;;13.28;100.00
38812;BME280;24553;51.640;-0.752;2023-05-12T02:23:18;101265.44;;;13.36;100.00
38812;BME280;24553;51.640;-0.752;2023-05-12T02:25:43;101260.69;;;13.31;100.00
38812;BME280;24553;51.640;-0.752;2023-05-12T02:28:08;101262.34;;;13.32;100.00
38812;BME280;24553;51.640;-0.752;2023-05-12T02:30:36;101266.56;;;13.26;100.00
38812;BME280;24553;51.640;-0.752;2023-05-12T02:33:01;101273.81;;;13.33;100.00
38812;BME280;24553;51.640;-0.752;2023-05-12T02:35:29;101267.78;;;13.45;100.00
38812;BME280;24553;51.640;-0.752;2023-05-12T02:37:54;101263.47;;;13.44;100.00
38812;BME280;24553;51.640;-0.752;2023-05-12T02:40:19;101269.44;;;13.46;100.00
38812;BME280;24553;51.640;-0.752;2023-05-12T02:42:45;101263.72;;;13.49;100.00
38812;BME280;24553;51.640;-0.752;2023-05-12T02:45:10;101268.31;;;13.56;100.00
38812;BME280;24553;51.640;-0.752;2023-05-12T02:47:36;101270.19;;;13.62;100.00
38812;BME280;24553;51.640;-0.752;2023-05-12T02:50:01;101269.22;;;13.69;100.00
38812;BME280;24553;51.640;-0.752;2023-05-12T02:52:27;101269.63;;;13.66;100.00
38812;BME280;24553;51.640;-0.752;2023-05-12T02:54:52;101266.00;;;13.74;100.00
38812;BME280;24553;51.640;-0.752;2023-05-12T02:57:18;101264.00;;;13.83;100.00
38812;BME280;24553;51.640;-0.752;2023-05-12T02:59:43;101271.41;;;13.87;100.00
38812;BME280;24553;51.640;-0.752;2023-05-12T03:02:08;101270.59;;;13.87;100.00
38812;BME280;24553;51.640;-0.752;2023-05-12T03:04:34;101271.34;;;13.81;100.00
38812;BME280;24553;51.640;-0.752;2023-05-12T03:06:59;101277.81;;;13.93;100.00
38812;BME280;24553;51.640;-0.752;2023-05-12T03:09:24;101273.75;;;13.97;100.00
38812;BME280;24553;51.640;-0.752;2023-05-12T03:11:50;101280.09;;;13.96;100.00
38812;BME280;24553;51.640;-0.752;2023-05-12T03:14:15;101291.16;;;13.93;100.00
38812;BME280;24553;51.640;-0.752;2023-05-12T03:16:40;101285.81;;;13.93;100.00
38812;BME280;24553;51.640;-0.752;2023-05-12T03:19:06;101292.84;;;14.01;100.00
38812;BME280;24553;51.640;-0.752;2023-05-12T03:21:31;101297.28;;;13.93;100.00
38812;BME280;24553;51.640;-0.752;2023-05-12T03:23:56;101297.66;;;13.84;100.00
38812;BME280;24553;51.640;-0.752;2023-05-12T03:26:22;101298.84;;;13.60;100.00
38812;BME280;24553;51.640;-0.752;2023-05-12T03:28:47;101301.00;;;13.49;100.00
38812;BME280;24553;51.640;-0.752;2023-05-12T03:31:12;101303.00;;;13.41;100.00
38812;BME280;24553;51.640;-0.752;2023-05-12T03:33:38;101305.13;;;13.30;100.00
38812;BME280;24553;51.640;-0.752;2023-05-12T03:36:03;101302.47;;;13.30;100.00
38812;BME280;24553;51.640;-0.752;2023-05-12T03:38:29;101308.44;;;12.22;100.00
38812;BME280;24553;51.640;-0.752;2023-05-12T03:41:05;101314.47;;;12.90;100.00
38812;BME280;24553;51.640;-0.752;2023-05-12T03:43:31;101314.19;;;13.00;100.00
38812;BME280;24553;51.640;-0.752;2023-05-12T03:45:56;101323.09;;;12.92;100.00
38812;BME280;24553;51.640;-0.752;2023-05-12T03:48:22;101323.47;;;12.89;100.00
38812;BME280;24553;51.640;-0.752;2023-05-12T03:50:47;101329.97;;;12.57;100.00
38812;BME280;24553;51.640;-0.752;2023-05-12T03:53:13;101329.44;;;12.47;100.00
38812;BME280;24553;51.640;-0.752;2023-05-12T03:55:38;101343.47;;;12.40;100.00
38812;BME280;24553;51.640;-0.752;2023-05-12T03:58:03;101341.09;;;12.46;100.00
38812;BME280;24553;51.640;-0.752;2023-05-12T04:00:29;101344.13;;;12.42;100.00
38812;BME280;24553;51.640;-0.752;2023-05-12T04:02:54;101353.09;;;12.41;100.00
38812;BME280;24553;51.640;-0.752;2023-05-12T04:05:19;101350.53;;;11.95;100.00
38812;BME280;24553;51.640;-0.752;2023-05-12T04:07:45;101363.25;;;12.23;100.00
38812;BME280;24553;51.640;-0.752;2023-05-12T04:10:10;101367.44;;;12.55;100.00
38812;BME280;24553;51.640;-0.752;2023-05-12T04:12:35;101354.13;;;12.70;100.00
38812;BME280;24553;51.640;-0.752;2023-05-12T04:15:01;101360.56;;;12.76;100.00
38812;BME280;24553;51.640;-0.752;2023-05-12T04:17:26;101356.88;;;12.77;100.00
38812;BME280;24553;51.640;-0.752;2023-05-12T04:19:52;101366.31;;;12.64;100.00
38812;BME280;24553;51.640;-0.752;2023-05-12T04:22:17;101363.03;;;12.62;100.00
38812;BME280;24553;51.640;-0.752;2023-05-12T04:24:43;101364.84;;;12.62;100.00
38812;BME280;24553;51.640;-0.752;2023-05-12T04:27:08;101366.59;;;12.55;100.00
38812;BME280;24553;51.640;-0.752;2023-05-12T04:29:33;101368.25;;;12.56;100.00
38812;BME280;24553;51.640;-0.752;2023-05-12T04:31:59;101366.88;;;12.60;100.00
38812;BME280;24553;51.640;-0.752;2023-05-12T04:34:24;101369.34;;;12.61;100.00
38812;BME280;24553;51.640;-0.752;2023-05-12T04:36:50;101367.22;;;12.57;100.00
38812;BME280;24553;51.640;-0.752;2023-05-12T04:39:15;101370.00;;;12.63;100.00
38812;BME280;24553;51.640;-0.752;2023-05-12T04:41:41;101362.13;;;12.70;100.00
38812;BME280;24553;51.640;-0.752;2023-05-12T04:44:06;101370.38;;;12.75;100.00
38812;BME280;24553;51.640;-0.752;2023-05-12T04:46:31;101373.19;;;12.59;100.00
38812;BME280;24553;51.640;-0.752;2023-05-12T04:48:57;101372.75;;;12.55;100.00
38812;BME280;24553;51.640;-0.752;2023-05-12T04:51:22;101377.81;;;12.65;100.00
38812;BME280;24553;51.640;-0.752;2023-05-12T04:53:48;101374.31;;;12.79;100.00
38812;BME280;24553;51.640;-0.752;2023-05-12T04:56:13;101380.66;;;12.78;100.00
38812;BME280;24553;51.640;-0.752;2023-05-12T04:58:38;101380.19;;;12.90;100.00
38812;BME280;24553;51.640;-0.752;2023-05-12T05:01:03;101377.97;;;12.93;100.00
38812;BME280;24553;51.640;-0.752;2023-05-12T05:03:29;101380.91;;;12.98;100.00
38812;BME280;24553;51.640;-0.752;2023-05-12T05:05:54;101387.25;;;13.12;100.00
38812;BME280;24553;51.640;-0.752;2023-05-12T05:08:20;101390.81;;;13.19;100.00
38812;BME280;24553;51.640;-0.752;2023-05-12T05:10:45;101392.00;;;13.17;100.00
38812;BME280;24553;51.640;-0.752;2023-05-12T05:13:10;101400.72;;;13.10;100.00
38812;BME280;24553;51.640;-0.752;2023-05-12T05:15:36;101403.31;;;13.04;100.00
38812;BME280;24553;51.640;-0.752;2023-05-12T05:18:01;101401.66;;;13.03;100.00
38812;BME280;24553;51.640;-0.752;2023-05-12T05:20:26;101404.25;;;12.96;100.00
38812;BME280;24553;51.640;-0.752;2023-05-12T05:22:52;101412.28;;;13.03;100.00
38812;BME280;24553;51.640;-0.752;2023-05-12T05:25:18;101399.72;;;12.97;100.00
38812;BME280;24553;51.640;-0.752;2023-05-12T05:27:43;101408.09;;;12.94;100.00
38812;BME280;24553;51.640;-0.752;2023-05-12T05:30:08;101408.16;;;13.00;100.00
38812;BME280;24553;51.640;-0.752;2023-05-12T05:32:37;101410.19;;;13.13;100.00
38812;BME280;24553;51.640;-0.752;2023-05-12T05:35:05;101414.19;;;13.24;100.00
38812;BME280;24553;51.640;-0.752;2023-05-12T05:37:30;101417.06;;;13.22;100.00
38812;BME280;24553;51.640;-0.752;2023-05-12T05:39:56;101423.97;;;13.31;100.00
38812;BME280;24553;51.640;-0.752;2023-05-12T05:42:21;101423.97;;;13.31;100.00
38812;BME280;24553;51.640;-0.752;2023-05-12T05:44:46;101425.25;;;13.36;100.00
38812;BME280;24553;51.640;-0.752;2023-05-12T05:47:12;101424.22;;;13.37;100.00
38812;BME280;24553;51.640;-0.752;2023-05-12T05:49:37;101433.69;;;13.39;100.00
38812;BME280;24553;51.640;-0.752;2023-05-12T05:52:02;101433.41;;;13.34;100.00
38812;BME280;24553;51.640;-0.752;2023-05-12T05:54:28;101429.50;;;13.30;100.00
38812;BME280;24553;51.640;-0.752;2023-05-12T05:56:53;101430.00;;;13.25;100.00
38812;BME280;24553;51.640;-0.752;2023-05-12T05:59:18;101437.09;;;13.33;100.00
38812;BME280;24553;51.640;-0.752;2023-05-12T06:01:44;101437.00;;;13.26;100.00
38812;BME280;24553;51.640;-0.752;2023-05-12T06:04:10;101443.47;;;13.32;100.00
38812;BME280;24553;51.640;-0.752;2023-05-12T06:06:35;101438.47;;;13.29;100.00
38812;BME280;24553;51.640;-0.752;2023-05-12T06:09:00;101446.38;;;13.07;100.00
38812;BME280;24553;51.640;-0.752;2023-05-12T06:11:26;101455.91;;;13.31;100.00
38812;BME280;24553;51.640;-0.752;2023-05-12T06:13:51;101446.44;;;13.44;100.00
38812;BME280;24553;51.640;-0.752;2023-05-12T06:16:16;101458.19;;;13.49;100.00
38812;BME280;24553;51.640;-0.752;2023-05-12T06:18:42;101455.50;;;13.64;100.00
38812;BME280;24553;51.640;-0.752;2023-05-12T06:21:07;101460.84;;;13.64;100.00
38812;BME280;24553;51.640;-0.752;2023-05-12T06:23:33;101458.69;;;13.74;100.00
38812;BME280;24553;51.640;-0.752;2023-05-12T06:25:59;101457.88;;;13.74;100.00
38812;BME280;24553;51.640;-0.752;2023-05-12T06:28:24;101458.41;;;13.84;100.00
38812;BME280;24553;51.640;-0.752;2023-05-12T06:30:50;101462.06;;;13.83;100.00
38812;BME280;24553;51.640;-0.752;2023-05-12T06:33:15;101465.19;;;13.87;100.00
38812;BME280;24553;51.640;-0.752;2023-05-12T06:35:40;101464.25;;;13.94;100.00
38812;BME280;24553;51.640;-0.752;2023-05-12T06:38:05;101471.56;;;14.07;100.00
38812;BME280;24553;51.640;-0.752;2023-05-12T06:40:31;101470.47;;;14.02;100.00
38812;BME280;24553;51.640;-0.752;2023-05-12T06:42:57;101468.91;;;14.07;100.00
38812;BME280;24553;51.640;-0.752;2023-05-12T06:45:22;101473.84;;;14.10;100.00
38812;BME280;24553;51.640;-0.752;2023-05-12T06:47:48;101473.66;;;14.12;100.00
38812;BME280;24553;51.640;-0.752;2023-05-12T06:50:13;101477.91;;;14.06;100.00
38812;BME280;24553;51.640;-0.752;2023-05-12T06:52:41;101479.06;;;14.18;100.00
38812;BME280;24553;51.640;-0.752;2023-05-12T06:55:07;101487.81;;;14.12;100.00
38812;BME280;24553;51.640;-0.752;2023-05-12T06:57:32;101482.16;;;14.01;100.00
38812;BME280;24553;51.640;-0.752;2023-05-12T06:59:57;101487.09;;;14.04;100.00
38812;BME280;24553;51.640;-0.752;2023-05-12T07:02:23;101480.19;;;14.09;100.00
38812;BME280;24553;51.640;-0.752;2023-05-12T07:04:48;101479.34;;;14.09;100.00
38812;BME280;24553;51.640;-0.752;2023-05-12T07:07:13;101490.38;;;14.21;100.00
38812;BME280;24553;51.640;-0.752;2023-05-12T07:09:38;101489.47;;;14.35;100.00
38812;BME280;24553;51.640;-0.752;2023-05-12T07:12:06;101491.78;;;14.38;100.00
38812;BME280;24553;51.640;-0.752;2023-05-12T07:14:31;101487.69;;;14.42;100.00
38812;BME280;24553;51.640;-0.752;2023-05-12T07:16:57;101486.94;;;14.48;100.00
38812;BME280;24553;51.640;-0.752;2023-05-12T07:19:22;101483.13;;;14.57;100.00
38812;BME280;24553;51.640;-0.752;2023-05-12T07:21:47;101491.69;;;14.53;100.00
38812;BME280;24553;51.640;-0.752;2023-05-12T07:24:13;101491.00;;;14.44;100.00
38812;BME280;24553;51.640;-0.752;2023-05-12T07:26:38;101497.75;;;14.61;100.00
38812;BME280;24553;51.640;-0.752;2023-05-12T07:29:03;101487.31;;;14.67;100.00
38812;BME280;24553;51.640;-0.752;2023-05-12T07:31:29;101488.56;;;14.71;100.00
38812;BME280;24553;51.640;-0.752;2023-05-12T07:33:55;101487.56;;;14.72;100.00
38812;BME280;24553;51.640;-0.752;2023-05-12T07:36:20;101488.66;;;14.84;100.00
38812;BME280;24553;51.640;-0.752;2023-05-12T07:38:46;101475.50;;;15.11;100.00
38812;BME280;24553;51.640;-0.752;2023-05-12T07:41:11;101482.19;;;15.35;100.00
38812;BME280;24553;51.640;-0.752;2023-05-12T07:43:37;101483.00;;;15.29;100.00
38812;BME280;24553;51.640;-0.752;2023-05-12T07:46:02;101492.91;;;15.00;100.00
38812;BME280;24553;51.640;-0.752;2023-05-12T07:48:28;101484.50;;;15.10;100.00
38812;BME280;24553;51.640;-0.752;2023-05-12T07:50:53;101491.63;;;15.31;100.00
38812;BME280;24553;51.640;-0.752;2023-05-12T07:53:19;101494.09;;;15.32;100.00
38812;BME280;24553;51.640;-0.752;2023-05-12T07:55:44;101498.88;;;15.43;100.00
38812;BME280;24553;51.640;-0.752;2023-05-12T07:58:10;101498.72;;;15.10;100.00
38812;BME280;24553;51.640;-0.752;2023-05-12T08:00:36;101493.78;;;15.14;100.00
38812;BME280;24553;51.640;-0.752;2023-05-12T08:03:02;101502.22;;;15.11;100.00
38812;BME280;24553;51.640;-0.752;2023-05-12T08:05:27;101488.13;;;15.30;100.00
38812;BME280;24553;51.640;-0.752;2023-05-12T08:07:53;101492.28;;;15.39;100.00
38812;BME280;24553;51.640;-0.752;2023-05-12T08:10:18;101492.06;;;15.34;100.00
38812;BME280;24553;51.640;-0.752;2023-05-12T08:12:43;101494.56;;;15.42;100.00
38812;BME280;24553;51.640;-0.752;2023-05-12T08:15:09;101488.16;;;15.37;100.00
38812;BME280;24553;51.640;-0.752;2023-05-12T08:17:35;101495.13;;;15.31;100.00
38812;BME280;24553;51.640;-0.752;2023-05-12T08:20:00;101494.41;;;15.51;100.00
38812;BME280;24553;51.640;-0.752;2023-05-12T08:22:28;101499.16;;;15.55;100.00
38812;BME280;24553;51.640;-0.752;2023-05-12T08:24:54;101494.22;;;15.59;100.00
38812;BME280;24553;51.640;-0.752;2023-05-12T08:27:19;101500.91;;;15.69;100.00
38812;BME280;24553;51.640;-0.752;2023-05-12T08:29:45;101505.03;;;15.79;100.00
38812;BME280;24553;51.640;-0.752;2023-05-12T08:32:10;101499.16;;;15.55;100.00
38812;BME280;24553;51.640;-0.752;2023-05-12T08:34:36;101505.34;;;15.62;100.00
38812;BME280;24553;51.640;-0.752;2023-05-12T08:37:01;101505.63;;;15.74;100.00
38812;BME280;24553;51.640;-0.752;2023-05-12T08:39:26;101513.78;;;15.66;100.00
38812;BME280;24553;51.640;-0.752;2023-05-12T08:44:45;101518.50;;;15.64;100.00
38812;BME280;24553;51.640;-0.752;2023-05-12T08:47:11;101528.47;;;15.77;100.00
38812;BME280;24553;51.640;-0.752;2023-05-12T08:49:38;101525.59;;;15.43;100.00
38812;BME280;24553;51.640;-0.752;2023-05-12T08:52:04;101537.66;;;15.33;100.00
38812;BME280;24553;51.640;-0.752;2023-05-12T08:54:32;101535.22;;;15.31;100.00
38812;BME280;24553;51.640;-0.752;2023-05-12T08:56:58;101532.56;;;15.73;100.00
38812;BME280;24553;51.640;-0.752;2023-05-12T08:59:23;101527.06;;;15.81;100.00
38812;BME280;24553;51.640;-0.752;2023-05-12T09:01:49;101526.84;;;15.82;100.00
38812;BME280;24553;51.640;-0.752;2023-05-12T09:04:15;101529.34;;;15.97;100.00
38812;BME280;24553;51.640;-0.752;2023-05-12T09:06:42;101523.16;;;15.83;100.00
38812;BME280;24553;51.640;-0.752;2023-05-12T09:09:08;101526.13;;;16.08;100.00
38812;BME280;24553;51.640;-0.752;2023-05-12T09:11:33;101528.19;;;16.20;100.00
38812;BME280;24553;51.640;-0.752;2023-05-12T09:14:03;101536.63;;;16.17;100.00
38812;BME280;24553;51.640;-0.752;2023-05-12T09:16:32;101536.63;;;16.23;100.00
38812;BME280;24553;51.640;-0.752;2023-05-12T09:19:00;101540.56;;;16.27;100.00
38812;BME280;24553;51.640;-0.752;2023-05-12T09:21:27;101528.22;;;16.26;100.00
38812;BME280;24553;51.640;-0.752;2023-05-12T09:24:03;101537.25;;;16.19;100.00
38812;BME280;24553;51.640;-0.752;2023-05-12T09:26:52;101540.31;;;16.09;100.00
38812;BME280;24553;51.640;-0.752;2023-05-12T09:29:19;101537.81;;;16.07;100.00
38812;BME280;24553;51.640;-0.752;2023-05-12T09:31:51;101544.66;;;16.23;100.00
38812;BME280;24553;51.640;-0.752;2023-05-12T09:34:18;101541.97;;;16.23;100.00
38812;BME280;24553;51.640;-0.752;2023-05-12T09:36:44;101543.44;;;16.32;100.00
38812;BME280;24553;51.640;-0.752;2023-05-12T09:39:18;101539.16;;;16.45;100.00
38812;BME280;24553;51.640;-0.752;2023-05-12T09:41:44;101540.22;;;16.84;100.00
38812;BME280;24553;51.640;-0.752;2023-05-12T09:44:09;101550.31;;;17.02;100.00
38812;BME280;24553;51.640;-0.752;2023-05-12T09:46:38;101534.22;;;17.08;100.00
38812;BME280;24553;51.640;-0.752;2023-05-12T09:49:06;101527.47;;;16.86;100.00
38812;BME280;24553;51.640;-0.752;2023-05-12T09:51:32;101547.97;;;17.32;100.00
38812;BME280;24553;51.640;-0.752;2023-05-12T09:53:58;101528.66;;;17.75;100.00
38812;BME280;24553;51.640;-0.752;2023-05-12T09:56:26;101539.19;;;17.05;100.00
38812;BME280;24553;51.640;-0.752;2023-05-12T09:58:54;101541.41;;;16.74;100.00
38812;BME280;24553;51.640;-0.752;2023-05-12T10:01:21;101548.41;;;16.62;100.00
38812;BME280;24553;51.640;-0.752;2023-05-12T10:03:51;101541.88;;;16.85;100.00
38812;BME280;24553;51.640;-0.752;2023-05-12T10:06:30;101539.41;;;17.68;100.00
38812;BME280;24553;51.640;-0.752;2023-05-12T10:09:05;101544.81;;;18.13;100.00
38812;BME280;24553;51.640;-0.752;2023-05-12T10:11:33;101529.97;;;18.11;100.00
38812;BME280;24553;51.640;-0.752;2023-05-12T10:13:59;101535.47;;;17.84;100.00
38812;BME280;24553;51.640;-0.752;2023-05-12T10:16:28;101529.91;;;17.79;100.00
38812;BME280;24553;51.640;-0.752;2023-05-12T10:18:54;101533.03;;;17.62;100.00
38812;BME280;24553;51.640;-0.752;2023-05-12T10:21:21;101528.97;;;17.53;100.00
38812;BME280;24553;51.640;-0.752;2023-05-12T10:23:47;101530.53;;;17.81;100.00
38812;BME280;24553;51.640;-0.752;2023-05-12T10:26:14;101529.88;;;18.24;100.00
38812;BME280;24553;51.640;-0.752;2023-05-12T10:28:40;101524.94;;;18.21;100.00
38812;BME280;24553;51.640;-0.752;2023-05-12T10:31:07;101521.56;;;18.32;100.00
38812;BME280;24553;51.640;-0.752;2023-05-12T10:33:34;101517.19;;;18.38;100.00
38812;BME280;24553;51.640;-0.752;2023-05-12T10:35:59;101520.50;;;18.65;100.00
38812;BME280;24553;51.640;-0.752;2023-05-12T10:38:24;101523.97;;;18.72;100.00
38812;BME280;24553;51.640;-0.752;2023-05-12T10:40:55;101517.59;;;18.41;100.00
38812;BME280;24553;51.640;-0.752;2023-05-12T10:43:28;101520.09;;;18.04;100.00
38812;BME280;24553;51.640;-0.752;2023-05-12T10:48:51;101522.88;;;17.84;100.00
38812;BME280;24553;51.640;-0.752;2023-05-12T10:51:22;101526.97;;;17.35;100.00
38812;BME280;24553;51.640;-0.752;2023-05-12T10:53:52;101523.91;;;17.18;100.00
38812;BME280;24553;51.640;-0.752;2023-05-12T10:56:22;101520.97;;;17.27;100.00
38812;BME280;24553;51.640;-0.752;2023-05-12T10:59:28;101522.47;;;17.03;100.00
38812;BME280;24553;51.640;-0.752;2023-05-12T11:02:00;101535.66;;;16.64;100.00
38812;BME280;24553;51.640;-0.752;2023-05-12T11:07:12;101542.66;;;16.45;100.00
38812;BME280;24553;51.640;-0.752;2023-05-12T11:09:43;101530.50;;;16.43;100.00
38812;BME280;24553;51.640;-0.752;2023-05-12T11:12:09;101529.06;;;16.67;100.00
38812;BME280;24553;51.640;-0.752;2023-05-12T11:14:36;101527.81;;;16.69;100.00
38812;BME280;24553;51.640;-0.752;2023-05-12T11:17:03;101520.00;;;16.54;100.00
38812;BME280;24553;51.640;-0.752;2023-05-12T11:19:29;101523.50;;;16.48;100.00
38812;BME280;24553;51.640;-0.752;2023-05-12T11:21:55;101517.75;;;16.45;100.00
38812;BME280;24553;51.640;-0.752;2023-05-12T11:24:21;101519.13;;;16.14;100.00
38812;BME280;24553;51.640;-0.752;2023-05-12T11:26:47;101519.09;;;16.01;100.00
38812;BME280;24553;51.640;-0.752;2023-05-12T11:29:19;101522.59;;;16.01;100.00
38812;BME280;24553;51.640;-0.752;2023-05-12T11:31:48;101515.97;;;15.90;100.00
38812;BME280;24553;51.640;-0.752;2023-05-12T11:34:14;101515.72;;;15.79;100.00
38812;BME280;24553;51.640;-0.752;2023-05-12T11:36:41;101516.72;;;15.71;100.00
38812;BME280;24553;51.640;-0.752;2023-05-12T11:39:18;101510.75;;;15.69;100.00
38812;BME280;24553;51.640;-0.752;2023-05-12T11:41:45;101510.41;;;15.85;100.00
38812;BME280;24553;51.640;-0.752;2023-05-12T11:44:14;101519.25;;;15.86;100.00
38812;BME280;24553;51.640;-0.752;2023-05-12T11:46:40;101503.38;;;15.78;100.00
38812;BME280;24553;51.640;-0.752;2023-05-12T11:49:09;101509.78;;;15.48;100.00
38812;BME280;24553;51.640;-0.752;2023-05-12T11:51:40;101498.28;;;15.48;100.00
38812;BME280;24553;51.640;-0.752;2023-05-12T11:54:06;101497.13;;;15.64;100.00
38812;BME280;24553;51.640;-0.752;2023-05-12T11:56:31;101498.88;;;15.78;100.00
38812;BME280;24553;51.640;-0.752;2023-05-12T11:58:57;101502.03;;;16.08;100.00
38812;BME280;24553;51.640;-0.752;2023-05-12T12:01:23;101502.81;;;16.02;100.00
38812;BME280;24553;51.640;-0.752;2023-05-12T12:03:52;101489.09;;;16.19;100.00
38812;BME280;24553;51.640;-0.752;2023-05-12T12:06:19;101499.56;;;16.20;100.00
38812;BME280;24553;51.640;-0.752;2023-05-12T12:08:55;101502.06;;;16.35;100.00
38812;BME280;24553;51.640;-0.752;2023-05-12T12:11:22;101511.72;;;16.23;100.00
38812;BME280;24553;51.640;-0.752;2023-05-12T12:13:49;101508.41;;;16.07;100.00
38812;BME280;24553;51.640;-0.752;2023-05-12T12:16:28;101505.53;;;16.16;100.00
38812;BME280;24553;51.640;-0.752;2023-05-12T12:18:53;101503.09;;;16.41;100.00
38812;BME280;24553;51.640;-0.752;2023-05-12T12:21:20;101502.72;;;16.70;100.00
38812;BME280;24553;51.640;-0.752;2023-05-12T12:23:46;101499.00;;;16.85;100.00
38812;BME280;24553;51.640;-0.752;2023-05-12T12:26:12;101499.00;;;16.98;100.00
38812;BME280;24553;51.640;-0.752;2023-05-12T12:28:41;101504.31;;;17.18;100.00
38812;BME280;24553;51.640;-0.752;2023-05-12T12:31:06;101499.81;;;17.12;100.00
38812;BME280;24553;51.640;-0.752;2023-05-12T12:33:31;101496.84;;;17.33;100.00
38812;BME280;24553;51.640;-0.752;2023-05-12T12:35:57;101492.19;;;17.60;100.00